Latest Weather Observations for Rolleston Airport

IDQ60801

Issued at 1:32 pm EST Friday 9 December 2016 (issued every 30 minutes, with the page automatically refreshed every 10 minutes)

About weather observations | Map of weather stations | Latest weather observations for QLD | Other Formats
Station Details ID: 035129 Name: ROLLESTON AIRPORT Lat: -24.46 Lon: 148.63 Height: 219.45 m
Data from the previous 72 hours. | See also: Recent months at Rolleston Airport
Date/Time
EST
Temp
°C
App
Temp
°C
Dew
Point
°C
Rel
Hum
%
Delta-T
°C
Wind Press
QNH
hPa
Press
MSL
hPa
Rain since
9am
mm
Dir  Spd
km/h
Gust
km/h
Spd
kts
Gust
kts
09/01:00pm 24.9 26.9 19.9 74 3.3 S 9 13 5 7 1013.1 1011.7 0.2
09/12:30pm 24.8 27.5 22.1 85 1.8 SSW 11 17 6 9 1012.9 1011.5 0.2
09/12:00pm 24.8 27.5 21.3 81 2.3 S 9 13 5 7 1013.1 1011.7 0.0
09/11:30am 25.7 28.2 21.1 76 3.1 SSW 9 13 5 7 1013.3 1011.9 0.0
09/11:00am 25.6 27.6 21.5 78 2.7 SW 13 19 7 10 1013.7 1012.3 0.0
09/10:30am 25.9 28.3 20.9 74 3.3 SSW 9 17 5 9 1013.7 1012.3 0.0
09/10:00am 25.7 28.8 21.4 77 2.9 SW 7 13 4 7 1013.8 1012.4 0.0
09/09:30am 25.1 28.5 21.0 78 2.7 SSE 4 7 2 4 1013.6 1012.2 0.0
09/09:00am 24.6 28.4 21.7 84 1.9 SW 4 7 2 4 1013.8 1012.4 22.2
09/08:30am 24.0 27.7 21.5 86 1.7 SSW 4 7 2 4 1013.3 1011.9 22.2
09/08:00am 23.6 27.7 21.5 88 1.4 E 2 4 1 2 1013.3 1011.9 22.2
09/07:30am 23.3 27.3 21.4 89 1.3 SSW 2 6 1 3 1013.6 1012.2 22.2
09/07:00am 22.9 26.2 21.4 91 1.0 SE 6 9 3 5 1013.3 1011.9 22.2
09/06:30am 22.6 25.5 21.8 95 0.5 E 9 13 5 7 1013.0 1011.6 22.2
09/06:00am 21.8 24.7 21.1 96 0.5 SE 7 9 4 5 1013.0 1011.6 22.2
09/05:30am 21.6 24.0 20.9 96 0.5 SE 9 13 5 7 1013.0 1011.6 22.0
09/05:00am 21.6 23.9 21.3 98 0.2 SE 11 13 6 7 1012.6 1011.2 21.0
09/04:30am 21.5 25.1 20.5 94 0.7 S 2 6 1 3 1012.9 1011.5 20.0
09/04:00am 21.5 25.5 20.5 94 0.7 CALM 0 0 0 0 1012.6 1011.2 19.4
09/03:30am 21.2 24.3 20.2 94 0.6 SW 4 7 2 4 1012.5 1011.1 19.4
09/03:00am 21.8 25.4 21.3 97 0.3 SSE 4 6 2 3 1012.4 1011.0 18.2
09/02:30am 21.7 24.8 21.5 99 0.1 NW 7 11 4 6 1013.2 1011.8 14.4
09/02:00am 22.4 24.8 21.6 95 0.5 NW 11 15 6 8 1012.5 1011.1 6.6
09/01:30am 23.1 26.3 20.6 86 1.6 N 4 6 2 3 1011.5 1010.1 3.8
09/01:00am 23.4 24.0 20.3 83 2.0 SE 17 24 9 13 1011.1 1009.7 2.2
09/12:30am 23.9 24.3 20.6 82 2.2 SE 19 24 10 13 1011.1 1009.7 2.2
09/12:00am 24.1 25.3 21.4 85 1.8 SE 17 22 9 12 1011.1 1009.7 2.2
 
Date/Time
EST
Temp
°C
App
Temp
°C
Dew
Point
°C
Rel
Hum
%
Delta-T
°C
Wind Press
QNH
hPa
Press
MSL
hPa
Rain since
9am
mm
Dir  Spd
km/h
Gust
km/h
Spd
kts
Gust
kts
08/11:30pm 24.6 27.5 21.1 81 2.3 S 7 11 4 6 1011.4 1010.0 2.2
08/11:00pm 24.4 27.6 21.7 85 1.8 SSE 7 11 4 6 1011.3 1009.9 2.2
08/10:30pm 24.2 26.7 21.7 86 1.7 W 11 17 6 9 1012.0 1010.5 2.0
08/10:00pm 29.1 28.6 17.9 50 7.2 WNW 17 28 9 15 1011.7 1010.3 0.0
08/09:30pm 28.6 30.1 18.1 53 6.7 SSE 7 9 4 5 1010.0 1008.6 0.0
08/09:00pm 28.8 28.8 18.0 52 6.9 S 15 20 8 11 1009.4 1008.0 0.0
08/08:30pm 29.3 28.8 17.8 50 7.4 SE 17 20 9 11 1009.0 1007.6 0.0
08/08:00pm 29.8 29.6 17.6 48 7.8 SE 15 19 8 10 1008.8 1007.4 0.0
08/07:30pm 30.6 29.8 17.0 44 8.7 SSE 17 24 9 13 1008.7 1007.3 0.0
08/07:00pm 32.2 31.4 16.1 38 10.2 ESE 15 20 8 11 1008.2 1006.8 0.0
08/06:30pm 34.0 33.7 14.5 31 12.1 NE 9 20 5 11 1007.9 1006.4 0.0
08/06:00pm 36.9 35.3 11.7 22 15.2 NNW 11 19 6 10 1007.2 1005.7 0.0
08/05:30pm 37.7 35.4 11.6 21 15.8 NNW 15 24 8 13 1006.6 1005.2 0.0
08/05:00pm 38.4 36.2 12.2 21 16.0 NNW 15 22 8 12 1006.3 1004.9 0.0
08/04:30pm 38.0 36.5 11.9 21 15.8 NNW 11 19 6 10 1006.4 1005.0 0.0
08/04:00pm 38.8 37.5 12.5 21 16.2 WNW 11 20 6 11 1006.4 1005.0 0.0
08/03:30pm 38.4 36.8 12.9 22 15.7 NW 13 28 7 15 1006.8 1005.4 0.0
08/03:00pm 37.1 36.0 13.2 24 14.8 N 11 19 6 10 1007.2 1005.7 0.0
08/02:30pm 37.4 36.2 14.0 24 14.6 NNE 13 28 7 15 1007.7 1006.2 0.0
08/02:00pm 36.6 36.6 15.1 27 13.6 NNE 9 17 5 9 1008.2 1006.8 0.0
08/01:30pm 37.3 36.5 15.2 27 14.0 NNE 13 24 7 13 1008.7 1007.3 0.0
08/01:00pm 35.8 34.7 14.4 27 13.4 N 13 26 7 14 1009.2 1007.8 0.0
08/12:30pm 35.1 35.0 14.9 29 12.7 NE 9 20 5 11 1009.7 1008.3 0.0
08/12:00pm 34.6 35.5 16.0 33 11.8 NNE 6 11 3 6 1010.5 1009.1 0.0
08/11:30am 34.0 35.6 16.8 35 11.0 SSE 4 9 2 5 1011.2 1009.8 0.0
08/11:00am 32.6 32.7 15.6 36 10.7 E 9 19 5 10 1011.9 1010.4 0.0
08/10:30am 31.4 32.4 16.9 41 9.2 ESE 7 15 4 8 1012.5 1011.1 0.0
08/10:00am 30.2 31.4 17.3 46 8.2 N 7 15 4 8 1013.1 1011.7 0.0
08/09:30am 29.8 31.8 19.2 53 6.9 W 7 13 4 7 1013.5 1012.1 0.0
08/09:00am 28.8 30.0 19.1 55 6.3 WSW 11 15 6 8 1013.8 1012.4 0.0
08/08:30am 28.0 29.9 19.0 58 5.9 W 7 15 4 8 1013.9 1012.5 0.0
08/08:00am 27.5 29.0 19.0 59 5.5 NW 9 15 5 8 1013.2 1011.8 0.0
08/07:30am 26.6 27.6 18.7 62 5.1 NW 11 15 6 8 1013.1 1011.7 0.0
08/07:00am 25.9 25.7 18.6 64 4.7 NW 17 24 9 13 1012.7 1011.3 0.0
08/06:30am 25.2 25.6 18.2 65 4.5 NNW 13 17 7 9 1012.1 1010.7 0.0
08/06:00am 22.8 24.3 17.7 73 3.2 NW 6 7 3 4 1011.9 1010.4 0.0
08/05:30am 22.0 23.2 17.4 75 2.9 NNW 7 11 4 6 1011.5 1010.1 0.0
08/05:00am 22.2 23.8 16.9 72 3.3 NNW 4 6 2 3 1011.4 1010.0 0.0
08/04:30am 22.7 24.6 16.7 69 3.7 NNW 2 6 1 3 1011.2 1009.8 0.0
08/04:00am 23.4 25.8 16.9 67 4.0 CALM 0 0 0 0 1011.2 1009.8 0.0
08/03:30am 23.6 26.1 17.3 67 3.9 CALM 0 0 0 0 1011.5 1010.1 0.0
08/03:00am 24.0 25.9 16.8 64 4.5 WSW 2 6 1 3 1011.6 1010.2 0.0
08/02:30am 24.2 26.0 16.5 62 4.8 WSW 2 6 1 3 1011.9 1010.4 0.0
08/02:00am 24.2 26.1 16.7 63 4.7 SW 2 4 1 2 1011.9 1010.4 0.0
08/01:30am 24.5 25.8 17.0 63 4.7 SSE 6 9 3 5 1012.1 1010.7 0.0
08/01:00am 24.6 25.6 16.8 62 4.9 SSE 7 9 4 5 1012.3 1010.9 0.0
08/12:30am 24.6 24.6 17.1 63 4.7 SE 13 17 7 9 1012.8 1011.4 0.0
08/12:00am 24.7 23.8 17.7 65 4.4 SE 19 26 10 14 1013.2 1011.8 0.0
 
Date/Time
EST
Temp
°C
App
Temp
°C
Dew
Point
°C
Rel
Hum
%
Delta-T
°C
Wind Press
QNH
hPa
Press
MSL
hPa
Rain since
9am
mm
Dir  Spd
km/h
Gust
km/h
Spd
kts
Gust
kts
07/11:30pm 25.2 24.1 17.7 63 4.7 SSE 20 30 11 16 1013.4 1012.0 0.0
07/11:00pm 25.3 23.9 18.0 64 4.6 SSE 22 32 12 17 1013.8 1012.4 0.0
07/10:30pm 25.7 24.2 18.6 65 4.6 SSE 24 37 13 20 1013.7 1012.3 0.0
07/10:00pm 27.0 25.0 18.3 59 5.6 SSE 26 39 14 21 1013.6 1012.2 0.0
07/09:30pm 29.2 26.8 16.4 46 8.0 S 24 37 13 20 1013.7 1012.3 0.0
07/09:00pm 30.0 28.7 16.8 45 8.4 SSW 19 35 10 19 1013.5 1012.1 0.0
07/08:30pm 30.3 28.4 16.7 44 8.6 SSE 22 37 12 20 1012.2 1010.8 0.0
07/08:00pm 30.2 28.9 16.9 44 8.5 S 19 30 10 16 1011.7 1010.3 0.0
07/07:30pm 31.2 29.4 16.0 40 9.6 SSE 20 41 11 22 1011.1 1009.7 0.0
07/07:00pm 34.7 34.5 13.0 27 13.2 NNW 6 7 3 4 1010.0 1008.6 0.0
07/06:30pm 36.0 37.1 13.5 26 13.9 CALM 0 2 0 1 1009.7 1008.3 0.0
07/06:00pm 37.0 37.2 13.1 24 14.7 WNW 4 9 2 5 1009.5 1008.1 0.0
07/05:30pm 37.3 37.2 13.3 23 14.8 NNW 6 13 3 7 1009.2 1007.8 0.0
07/05:00pm 37.1 36.6 12.5 23 15.0 NNW 7 13 4 7 1009.1 1007.7 0.0
07/04:30pm 37.6 37.2 12.9 23 15.2 N 7 13 4 7 1008.9 1007.5 0.0
07/04:00pm 38.3 37.6 14.2 24 15.1 NNW 11 17 6 9 1009.0 1007.6 0.0
07/03:30pm 37.5 36.7 14.1 24 14.6 NNE 11 20 6 11 1009.2 1007.8 0.0
07/03:00pm 37.6 37.1 14.8 25 14.4 NNW 11 15 6 8 1009.8 1008.4 0.0
07/02:30pm 36.8 37.2 14.7 26 13.9 NNE 6 13 3 7 1010.4 1009.0 0.0
07/02:00pm 37.2 37.9 15.6 27 13.8 NNE 6 9 3 5 1010.9 1009.5 0.0
07/01:30pm 37.2 38.1 16.2 29 13.5 WSW 6 9 3 5 1011.3 1009.9 0.0
07/01:00pm 35.7 36.3 15.4 29 12.9 NW 6 15 3 8 1011.5 1010.1 0.0
07/12:30pm 35.2 35.1 16.0 31 12.2 NW 11 19 6 10 1012.1 1010.7 0.0
07/12:00pm 34.7 35.6 16.5 33 11.7 NW 7 19 4 10 1012.5 1011.1 0.0
07/11:30am 33.5 34.1 16.8 36 10.7 N 9 17 5 9 1013.1 1011.7 0.0
07/11:00am 33.2 33.9 17.0 38 10.4 NNW 9 15 5 8 1013.6 1012.2 0.0
07/10:30am 31.3 31.8 16.5 41 9.4 N 9 17 5 9 1014.3 1012.9 0.0
07/10:00am 30.6 31.4 17.3 45 8.5 N 9 17 5 9 1014.6 1013.2 0.0
07/09:30am 29.4 30.7 17.6 49 7.5 NNW 7 13 4 7 1014.8 1013.4 0.0
07/09:00am 28.6 29.5 17.5 51 7.1 NNE 9 17 5 9 1015.1 1013.7 0.0
07/08:30am 27.6 28.7 17.2 53 6.6 N 7 11 4 6 1015.3 1013.9 0.0
07/08:00am 26.9 28.0 17.1 55 6.2 NW 7 11 4 6 1015.4 1014.0 0.0
07/07:30am 26.3 27.6 17.6 58 5.5 N 7 13 4 7 1015.2 1013.8 0.0
07/07:00am 25.0 26.5 17.7 64 4.6 NW 6 7 3 4 1015.2 1013.8 0.0
07/06:30am 24.5 26.0 17.5 65 4.4 NNW 6 9 3 5 1014.8 1013.4 0.0
07/06:00am 23.5 25.3 17.3 68 3.9 N 4 6 2 3 1014.4 1013.0 0.0
07/05:30am 22.9 24.2 16.2 66 4.1 NNW 4 6 2 3 1014.0 1012.6 0.0
07/05:00am 23.3 24.2 16.1 64 4.4 N 6 9 3 5 1013.5 1012.1 0.0
07/04:30am 23.3 24.0 15.6 62 4.7 N 6 9 3 5 1013.1 1011.7 0.0
07/04:00am 23.7 24.8 15.7 61 4.9 N 4 7 2 4 1013.1 1011.7 0.0
07/03:30am 24.3 25.0 15.5 58 5.4 N 6 7 3 4 1012.8 1011.4 0.0
07/03:00am 24.4 25.1 15.6 58 5.4 NNW 6 7 3 4 1012.5 1011.1 0.0
07/02:30am 24.9 25.5 15.8 57 5.6 NNW 7 13 4 7 1012.3 1010.9 0.0
07/02:00am 25.5 26.4 16.1 56 5.8 WSW 6 7 3 4 1012.7 1011.3 0.0
07/01:30am 25.6 27.0 16.5 57 5.7 WNW 4 7 2 4 1012.0 1010.5 0.0
07/01:00am 25.9 25.9 16.2 55 6.0 N 11 15 6 8 1011.6 1010.2 0.0
07/12:30am 26.5 26.7 16.7 55 6.1 N 11 17 6 9 1011.7 1010.3 0.0
07/12:00am 27.0 26.1 16.9 54 6.3 N 17 28 9 15 1011.7 1010.3 0.0
 
Date/Time
EST
Temp
°C
App
Temp
°C
Dew
Point
°C
Rel
Hum
%
Delta-T
°C
Wind Press
QNH
hPa
Press
MSL
hPa
Rain since
9am
mm
Dir  Spd
km/h
Gust
km/h
Spd
kts
Gust
kts
06/11:30pm 27.4 27.2 17.6 55 6.2 N 15 22 8 12 1012.0 1010.5 0.0
06/11:00pm 27.9 27.0 17.7 53 6.5 N 19 32 10 17 1011.9 1010.4 0.0
06/10:30pm 28.9 27.6 18.1 52 6.9 N 22 32 12 17 1011.9 1010.4 0.0
06/10:00pm 30.1 29.1 17.9 48 7.9 N 20 32 11 17 1011.7 1010.3 0.0
06/09:30pm 31.1 29.5 17.4 44 8.8 N 22 32 12 17 1011.3 1009.9 0.0
06/09:00pm 32.6 31.1 16.4 37 10.3 N 19 33 10 18 1011.1 1009.7 0.0
06/08:30pm 33.0 32.7 15.5 35 11.0 N 11 15 6 8 1010.8 1009.4 0.0
06/08:00pm 33.6 32.8 15.1 33 11.6 N 13 19 7 10 1010.7 1009.3 0.0
06/07:30pm 34.4 34.4 15.3 31 12.0 N 9 17 5 9 1010.4 1009.0 0.0
06/07:00pm 35.4 34.3 15.2 30 12.7 N 15 19 8 10 1010.0 1008.6 0.0
06/06:30pm 36.4 35.6 15.0 28 13.5 N 13 20 7 11 1009.8 1008.4 0.0
06/06:00pm 36.9 36.4 14.8 26 13.9 NNW 11 17 6 9 1009.7 1008.3 0.0
06/05:30pm 36.8 35.6 14.1 25 14.2 NNW 13 19 7 10 1009.6 1008.2 0.0
06/05:00pm 37.5 36.3 14.1 24 14.6 NNW 13 20 7 11 1009.4 1008.0 0.0
06/04:30pm 37.6 36.9 14.2 25 14.7 N 11 17 6 9 1009.4 1008.0 0.0
06/04:00pm 38.0 37.0 14.5 24 14.8 N 13 24 7 13 1009.8 1008.4 0.0
06/03:30pm 38.5 38.0 13.7 23 15.5 NNE 9 22 5 12 1010.1 1008.7 0.0
06/03:00pm 38.7 37.4 13.8 22 15.6 NNE 13 22 7 12 1010.7 1009.3 0.0
06/02:30pm 37.5 36.3 12.8 22 15.2 NE 11 22 6 12 1011.2 1009.8 0.0
06/02:00pm 37.4 36.6 12.8 23 15.1 N 9 19 5 10 1011.9 1010.4 0.0

Other Formats:

Comma delimited format used in spreadsheet applications
http://www.bom.gov.au/fwo/IDQ60801/IDQ60801.94396.axf

JavaScript Object Notation format (JSON) in row-major order
http://www.bom.gov.au/fwo/IDQ60801/IDQ60801.94396.json